Time;durP1;ratioP1;P1;durP2;ratioP2;P2;SDS_P1;SDS_P2;PMS_P1;PMS_P2;Temp;Humidity;BMP_temperature;BMP_pressure;BME280_temperature;BME280_humidity;BME280_pressure;Samples;Min_cycle;Max_cycle;Signal;HPM_P1;HPM_P2
2023/07/22 00:00:39;;;;;;;4.60;2.75;;;15.30;99.90;;;;;;5127679;27;20045;-63
2023/07/22 00:03:06;;;;;;;4.75;2.78;;;15.30;99.90;;;;;;5133496;27;20096;-63
2023/07/22 00:05:33;;;;;;;12.55;3.17;;;15.20;99.90;;;;;;5128073;27;20431;-63
2023/07/22 00:08:00;;;;;;;6.88;2.75;;;15.20;99.90;;;;;;5133485;27;20483;-63
2023/07/22 00:10:27;;;;;;;3.72;2.75;;;15.10;99.90;;;;;;5133338;27;20081;-63
2023/07/22 00:12:54;;;;;;;8.15;3.72;;;15.20;99.90;;;;;;5133719;27;20038;-63
2023/07/22 00:15:23;;;;;;;6.18;2.95;;;15.30;99.90;;;;;;5123847;27;20074;-62
2023/07/22 00:17:51;;;;;;;6.97;3.10;;;15.30;99.90;;;;;;5130530;27;20093;-63
2023/07/22 00:20:19;;;;;;;;;;;15.20;99.90;;;;;;5132255;27;20574;-63
2023/07/22 00:22:47;;;;;;;6.38;3.15;;;15.30;99.90;;;;;;5134222;27;19919;-63
2023/07/22 00:25:14;;;;;;;5.78;2.88;;;15.20;99.90;;;;;;5126108;27;20039;-63
2023/07/22 00:27:42;;;;;;;6.70;2.83;;;15.10;99.90;;;;;;5133965;27;20088;-63
2023/07/22 00:30:09;;;;;;;;;;;15.10;99.90;;;;;;5133013;27;20117;-63
2023/07/22 00:32:40;;;;;;;5.03;2.85;;;15.10;99.90;;;;;;5125384;27;19968;-63
2023/07/22 00:35:09;;;;;;;8.52;3.15;;;15.10;99.90;;;;;;5132559;27;20035;-63
2023/07/22 00:37:36;;;;;;;7.55;3.20;;;15.10;99.90;;;;;;5114612;27;20040;-62
2023/07/22 00:40:11;;;;;;;5.13;3.38;;;15.00;99.90;;;;;;5130484;27;20063;-63
2023/07/22 00:42:39;;;;;;;8.23;3.63;;;15.00;99.90;;;;;;5107904;28;20043;-64
2023/07/22 00:45:06;;;;;;;;;;;15.00;99.90;;;;;;5131860;27;20109;-63
2023/07/22 00:47:35;;;;;;;8.07;3.80;;;15.00;99.90;;;;;;5133501;27;19925;-62
2023/07/22 00:50:03;;;;;;;11.10;4.00;;;15.00;99.90;;;;;;5104321;27;20051;-62
2023/07/22 00:52:30;;;;;;;7.68;3.10;;;15.00;99.90;;;;;;5114642;27;20084;-62
2023/07/22 00:54:58;;;;;;;4.55;3.03;;;15.00;99.90;;;;;;5146567;27;20129;-63
2023/07/22 00:57:27;;;;;;;9.88;3.50;;;15.00;99.90;;;;;;5112876;27;20429;-62
2023/07/22 00:59:54;;;;;;;8.27;3.22;;;15.00;99.90;;;;;;5112363;27;20203;-63
2023/07/22 01:02:23;;;;;;;5.50;3.00;;;15.00;99.90;;;;;;5132206;27;20062;-61
2023/07/22 01:04:50;;;;;;;11.35;3.50;;;15.00;99.90;;;;;;5132549;27;20086;-63
2023/07/22 01:07:17;;;;;;;6.18;3.33;;;15.00;99.90;;;;;;5114766;27;20074;-63
2023/07/22 01:09:44;;;;;;;9.32;3.20;;;14.90;99.90;;;;;;5109169;27;20567;-63
2023/07/22 01:12:12;;;;;;;6.13;3.38;;;14.90;99.90;;;;;;5112617;27;20355;-63
2023/07/22 01:14:41;;;;;;;5.47;3.28;;;14.80;99.90;;;;;;5113896;27;20142;-63
2023/07/22 01:17:10;;;;;;;6.65;3.00;;;14.80;99.90;;;;;;5110421;27;20132;-63
2023/07/22 01:19:37;;;;;;;6.70;3.47;;;14.80;99.90;;;;;;5132539;27;20030;-63
2023/07/22 01:22:07;;;;;;;4.90;2.88;;;14.80;99.90;;;;;;5104763;27;20043;-63
2023/07/22 01:24:34;;;;;;;5.57;2.72;;;14.80;99.90;;;;;;5109932;28;20485;-63
2023/07/22 01:27:03;;;;;;;4.63;3.20;;;14.80;99.90;;;;;;5121350;27;20054;-63
2023/07/22 01:29:30;;;;;;;6.20;2.88;;;14.80;99.90;;;;;;5132083;27;20053;-63
2023/07/22 01:31:57;;;;;;;8.93;3.72;;;15.30;99.90;;;;;;5113052;27;20131;-63
2023/07/22 01:34:24;;;;;;;6.65;2.92;;;14.80;99.90;;;;;;5109106;27;20388;-63
2023/07/22 01:36:51;;;;;;;4.15;2.83;;;15.50;99.90;;;;;;5110580;27;20058;-63
2023/07/22 01:39:18;;;;;;;8.35;3.35;;;14.80;99.90;;;;;;5112979;27;20037;-63
2023/07/22 01:41:45;;;;;;;5.00;3.38;;;14.80;99.90;;;;;;5127985;27;20039;-62
2023/07/22 01:44:12;;;;;;;4.32;2.72;;;14.80;99.90;;;;;;5112958;27;20057;-62
2023/07/22 01:46:39;;;;;;;5.47;3.00;;;14.80;99.90;;;;;;5105229;27;20472;-63
2023/07/22 01:49:09;;;;;;;;;;;14.70;99.90;;;;;;5112453;27;20050;-62
2023/07/22 01:51:40;;;;;;;5.50;2.95;;;14.60;99.90;;;;;;5118552;27;20404;-64
2023/07/22 01:54:08;;;;;;;6.78;2.67;;;14.60;99.90;;;;;;5112723;27;20051;-63
2023/07/22 01:56:36;;;;;;;8.57;3.05;;;14.60;99.90;;;;;;5113432;27;20039;-63
2023/07/22 01:59:03;;;;;;;6.15;3.22;;;14.60;99.90;;;;;;5112347;27;20092;-63
2023/07/22 02:01:30;;;;;;;4.90;2.90;;;14.60;99.90;;;;;;5112124;27;20050;-62
2023/07/22 02:03:58;;;;;;;4.57;3.20;;;14.60;99.90;;;;;;5131006;27;20081;-62
2023/07/22 02:06:26;;;;;;;;;;;14.60;99.90;;;;;;5114158;27;20437;-62
2023/07/22 02:08:53;;;;;;;5.53;2.67;;;14.60;99.90;;;;;;5104620;28;19919;-62
2023/07/22 02:11:20;;;;;;;5.07;3.05;;;14.60;99.90;;;;;;5104672;28;20513;-62
2023/07/22 02:13:46;;;;;;;7.40;3.15;;;14.70;99.90;;;;;;5112256;28;20399;-63
2023/07/22 02:16:13;;;;;;;6.95;2.75;;;14.60;99.90;;;;;;5111859;28;20049;-62
2023/07/22 02:18:40;;;;;;;4.93;2.92;;;14.60;99.90;;;;;;5104067;28;20088;-62
2023/07/22 02:21:07;;;;;;;4.38;2.78;;;14.60;99.90;;;;;;5110368;28;20047;-62
2023/07/22 02:23:34;;;;;;;5.93;2.70;;;14.70;99.90;;;;;;5111479;28;20047;-62
2023/07/22 02:26:01;;;;;;;4.38;2.60;;;14.70;99.90;;;;;;5104261;28;20051;-62
2023/07/22 02:28:28;;;;;;;;;;;14.70;99.90;;;;;;5106090;27;20082;-62
2023/07/22 02:30:55;;;;;;;7.05;2.90;;;14.70;99.90;;;;;;5117055;27;19988;-62
2023/07/22 02:33:22;;;;;;;5.00;2.85;;;14.70;99.90;;;;;;5130658;27;20053;-62
2023/07/22 02:35:49;;;;;;;5.70;2.97;;;14.60;99.90;;;;;;5135319;27;20506;-62
2023/07/22 02:38:16;;;;;;;5.65;3.03;;;14.50;99.90;;;;;;5108088;27;20067;-63
2023/07/22 02:40:44;;;;;;;6.78;3.08;;;14.50;99.90;;;;;;5113392;27;20042;-62
2023/07/22 02:43:10;;;;;;;6.53;2.78;;;14.50;99.90;;;;;;5133827;27;20446;-63
2023/07/22 02:45:37;;;;;;;5.45;3.15;;;14.50;99.90;;;;;;5116086;27;20364;-62
2023/07/22 02:48:04;;;;;;;8.52;3.08;;;14.60;99.90;;;;;;5135549;27;20040;-62
2023/07/22 02:50:31;;;;;;;5.70;3.00;;;14.60;99.90;;;;;;5133716;27;20035;-62
2023/07/22 02:52:58;;;;;;;4.88;3.25;;;14.60;99.90;;;;;;5117387;27;20092;-62
2023/07/22 02:55:25;;;;;;;4.78;2.80;;;14.60;99.90;;;;;;5111172;27;20125;-62
2023/07/22 02:57:52;;;;;;;4.65;2.95;;;14.60;99.90;;;;;;5135662;27;20027;-62
2023/07/22 03:00:26;;;;;;;5.38;3.17;;;14.60;99.90;;;;;;5106100;27;20047;-62
2023/07/22 03:03:00;;;;;;;8.68;3.20;;;14.60;99.90;;;;;;5135500;27;20031;-62
2023/07/22 03:05:28;;;;;;;5.72;2.78;;;14.70;99.90;;;;;;5116161;27;20100;-62
2023/07/22 03:07:56;;;;;;;6.10;2.75;;;14.70;99.90;;;;;;5126959;27;20066;-62
2023/07/22 03:10:25;;;;;;;6.20;3.05;;;14.70;99.90;;;;;;5099082;27;20569;-62
2023/07/22 03:12:55;;;;;;;6.43;3.35;;;14.60;99.90;;;;;;5116287;27;20043;-62
2023/07/22 03:15:23;;;;;;;6.18;3.08;;;14.70;99.90;;;;;;5128261;27;20051;-62
2023/07/22 03:17:49;;;;;;;6.53;2.90;;;14.70;99.90;;;;;;5109677;28;20389;-62
2023/07/22 03:20:18;;;;;;;5.82;3.55;;;14.60;99.90;;;;;;5131815;27;20122;-62
2023/07/22 03:22:46;;;;;;;7.28;3.63;;;14.50;99.90;;;;;;5134518;27;20031;-62
2023/07/22 03:25:13;;;;;;;;;;;14.50;99.90;;;;;;5116305;27;20039;-62
2023/07/22 03:27:41;;;;;;;6.63;3.00;;;14.50;99.90;;;;;;5117367;27;19919;-62
2023/07/22 03:30:08;;;;;;;7.68;3.25;;;14.40;99.90;;;;;;5115909;27;20105;-62
2023/07/22 03:32:35;;;;;;;6.18;3.60;;;14.40;99.90;;;;;;5134178;27;20080;-63
2023/07/22 03:35:02;;;;;;;5.43;3.28;;;14.40;99.90;;;;;;5133462;27;20051;-62
2023/07/22 03:37:29;;;;;;;5.47;2.95;;;14.50;99.90;;;;;;5113661;27;20039;-62
2023/07/22 03:39:56;;;;;;;6.38;2.95;;;14.50;99.90;;;;;;5115834;27;20082;-62
2023/07/22 03:42:23;;;;;;;5.00;3.00;;;14.50;99.90;;;;;;5112700;27;20039;-62
2023/07/22 03:44:50;;;;;;;4.43;2.33;;;14.60;99.90;;;;;;5110020;28;20043;-62
2023/07/22 03:47:16;;;;;;;4.57;2.83;;;14.50;99.90;;;;;;5110740;27;20475;-63
2023/07/22 03:49:43;;;;;;;5.90;3.38;;;14.60;99.90;;;;;;5115756;27;20039;-63
2023/07/22 03:52:14;;;;;;;3.80;2.92;;;14.50;99.90;;;;;;5113905;27;20039;-62
2023/07/22 03:54:41;;;;;;;15.68;3.13;;;14.60;99.90;;;;;;5107883;27;20142;-63
2023/07/22 03:57:07;;;;;;;9.00;2.95;;;14.60;99.90;;;;;;5134189;27;20535;-62
2023/07/22 03:59:34;;;;;;;4.13;2.75;;;14.60;99.90;;;;;;5121046;27;20032;-62
2023/07/22 04:02:02;;;;;;;9.07;2.95;;;14.60;99.90;;;;;;5114393;27;20492;-62
2023/07/22 04:04:29;;;;;;;7.68;2.90;;;14.60;99.90;;;;;;5114776;27;20053;-62
2023/07/22 04:06:55;;;;;;;6.57;2.95;;;14.60;99.90;;;;;;5114776;27;20043;-62
2023/07/22 04:09:22;;;;;;;4.43;2.72;;;14.60;99.90;;;;;;5122893;27;20041;-63
2023/07/22 04:11:49;;;;;;;4.82;2.67;;;14.60;99.90;;;;;;5094938;28;20476;-62
2023/07/22 04:14:16;;;;;;;7.80;3.00;;;14.70;99.90;;;;;;5111852;27;20064;-62
2023/07/22 04:16:42;;;;;;;5.68;2.90;;;14.70;99.90;;;;;;5105614;27;20655;-62
2023/07/22 04:19:09;;;;;;;8.90;3.17;;;14.80;99.90;;;;;;5114521;27;20043;-62
2023/07/22 04:21:36;;;;;;;5.90;2.63;;;14.70;99.90;;;;;;5125745;27;20047;-62
2023/07/22 04:24:03;;;;;;;5.93;3.05;;;15.20;99.90;;;;;;5125126;27;20044;-62
2023/07/22 04:26:30;;;;;;;5.95;3.05;;;14.80;99.90;;;;;;5133721;27;20047;-62
2023/07/22 04:28:57;;;;;;;5.28;2.85;;;14.80;99.90;;;;;;5114008;27;20062;-63
2023/07/22 04:31:25;;;;;;;5.88;2.80;;;14.90;99.90;;;;;;5133562;27;20039;-62
2023/07/22 04:33:52;;;;;;;4.25;2.28;;;14.90;99.90;;;;;;5127059;27;20039;-62
2023/07/22 04:36:19;;;;;;;5.57;2.80;;;15.00;99.90;;;;;;5132652;27;20126;-62
2023/07/22 04:38:46;;;;;;;5.68;3.15;;;15.00;99.90;;;;;;5113711;27;20062;-62
2023/07/22 04:41:13;;;;;;;11.43;2.92;;;15.00;99.90;;;;;;5131913;27;20039;-62
2023/07/22 04:43:40;;;;;;;5.13;2.80;;;15.00;99.90;;;;;;5133436;27;20027;-62
2023/07/22 04:46:07;;;;;;;9.07;2.65;;;15.00;99.90;;;;;;5132635;27;20091;-62
2023/07/22 04:48:34;;;;;;;5.70;2.53;;;15.10;99.90;;;;;;5133081;27;20084;-62
2023/07/22 04:51:01;;;;;;;8.75;3.10;;;15.10;99.90;;;;;;5131671;27;20043;-62
2023/07/22 04:53:28;;;;;;;3.55;2.50;;;15.10;99.90;;;;;;5133362;27;20039;-62
2023/07/22 04:55:55;;;;;;;5.95;2.75;;;15.20;99.90;;;;;;5132633;27;20046;-63
2023/07/22 04:58:22;;;;;;;7.45;2.83;;;15.30;99.90;;;;;;5123985;27;20031;-62
2023/07/22 05:00:48;;;;;;;6.43;2.58;;;15.30;99.90;;;;;;5131106;27;20043;-62
2023/07/22 05:03:15;;;;;;;3.50;2.47;;;15.40;99.90;;;;;;5131822;27;20071;-63
2023/07/22 05:05:42;;;;;;;5.72;3.00;;;15.50;99.90;;;;;;5131921;27;20042;-62
2023/07/22 05:08:09;;;;;;;5.97;2.80;;;15.60;99.90;;;;;;5105001;28;20491;-62
2023/07/22 05:10:39;;;;;;;7.75;3.55;;;15.70;99.90;;;;;;5131570;27;20043;-63
2023/07/22 05:13:06;;;;;;;8.57;3.30;;;15.80;99.90;;;;;;5132077;27;20045;-62
2023/07/22 05:15:33;;;;;;;12.32;3.92;;;15.90;99.90;;;;;;5132280;27;20421;-63
2023/07/22 05:17:59;;;;;;;8.30;2.67;;;15.90;99.90;;;;;;5129679;27;20050;-63
2023/07/22 05:20:26;;;;;;;4.70;2.45;;;15.90;99.90;;;;;;5114067;27;20234;-63
2023/07/22 05:22:53;;;;;;;7.50;2.90;;;16.60;99.90;;;;;;5131963;27;20035;-64
2023/07/22 05:25:20;;;;;;;4.50;2.90;;;16.10;99.90;;;;;;5111959;27;20419;-63
2023/07/22 05:27:47;;;;;;;4.65;2.78;;;16.00;99.90;;;;;;5132147;27;20043;-63
2023/07/22 05:30:13;;;;;;;7.03;2.70;;;16.10;99.90;;;;;;5131505;27;20058;-64
2023/07/22 05:32:58;;;;;;;5.63;2.22;;;16.20;99.90;;;;;;5125902;27;20500;-63
2023/07/22 05:35:25;;;;;;;7.53;3.05;;;16.20;99.90;;;;;;5129539;27;20047;-64
2023/07/22 05:37:52;;;;;;;5.32;2.78;;;16.20;99.90;;;;;;5130817;27;20031;-64
2023/07/22 05:40:19;;;;;;;7.18;2.90;;;16.20;99.90;;;;;;5128370;27;20046;-64
2023/07/22 05:42:46;;;;;;;7.97;2.60;;;16.20;99.90;;;;;;5124350;27;20035;-63
2023/07/22 05:45:15;;;;;;;7.15;2.42;;;16.30;99.90;;;;;;5128108;27;20547;-63
2023/07/22 05:47:41;;;;;;;9.15;3.22;;;16.40;99.90;;;;;;5127984;27;20043;-64
2023/07/22 05:50:09;;;;;;;7.20;2.55;;;16.50;99.90;;;;;;5127307;27;20066;-64
2023/07/22 05:52:36;;;;;;;4.95;2.88;;;16.60;99.90;;;;;;5130501;27;20130;-64
2023/07/22 05:55:04;;;;;;;6.57;3.17;;;16.60;99.90;;;;;;5132397;27;20039;-64
2023/07/22 05:57:31;;;;;;;6.97;3.13;;;16.70;99.90;;;;;;5125231;27;20039;-63
2023/07/22 05:59:58;;;;;;;4.85;3.00;;;16.80;99.90;;;;;;5132034;27;20082;-64
2023/07/22 06:02:40;;;;;;;7.15;3.60;;;16.70;99.90;;;;;;5129984;27;20035;-64
2023/07/22 06:05:07;;;;;;;6.07;3.60;;;16.80;99.90;;;;;;5131959;27;20035;-64
2023/07/22 06:07:34;;;;;;;8.35;3.90;;;16.80;99.90;;;;;;5127879;27;20503;-64
2023/07/22 06:10:01;;;;;;;7.15;3.85;;;16.80;99.90;;;;;;5130905;27;20039;-64
2023/07/22 06:12:28;;;;;;;6.57;4.60;;;16.90;99.90;;;;;;5133555;27;20122;-64
2023/07/22 06:14:55;;;;;;;6.57;3.78;;;16.90;99.90;;;;;;5131607;28;20042;-64
2023/07/22 06:17:22;;;;;;;6.80;3.70;;;17.00;99.90;;;;;;5122673;28;20123;-64
2023/07/22 06:19:49;;;;;;;8.82;4.47;;;17.20;99.90;;;;;;5131138;28;20050;-64
2023/07/22 06:22:16;;;;;;;6.35;3.80;;;17.30;99.90;;;;;;5132157;28;20043;-64
2023/07/22 06:24:43;;;;;;;6.75;4.05;;;17.30;99.90;;;;;;5122090;28;20033;-63
2023/07/22 06:27:09;;;;;;;9.02;3.75;;;17.40;99.90;;;;;;5132083;28;20047;-64
2023/07/22 06:29:36;;;;;;;9.75;4.10;;;17.40;99.90;;;;;;5123026;28;20534;-64
2023/07/22 06:32:04;;;;;;;6.93;4.78;;;17.60;99.90;;;;;;5134508;27;20395;-64
2023/07/22 06:34:30;;;;;;;7.03;4.55;;;17.70;99.90;;;;;;5132223;27;20039;-64
2023/07/22 06:36:57;;;;;;;10.25;4.85;;;18.40;99.90;;;;;;5128050;28;20062;-64
2023/07/22 06:39:24;;;;;;;8.63;4.55;;;17.80;99.90;;;;;;5127209;28;20039;-64
2023/07/22 06:41:50;;;;;;;8.77;5.20;;;17.90;99.90;;;;;;5130550;28;20035;-64
2023/07/22 06:44:17;;;;;;;5.75;4.20;;;17.90;99.90;;;;;;5131151;27;20035;-64
2023/07/22 06:46:44;;;;;;;7.75;4.82;;;18.10;99.90;;;;;;5123903;27;20459;-64
2023/07/22 06:49:11;;;;;;;8.80;4.68;;;18.20;99.90;;;;;;5122266;28;20067;-64
2023/07/22 06:51:38;;;;;;;7.03;4.50;;;18.20;99.90;;;;;;5130822;27;20036;-64
2023/07/22 06:54:05;;;;;;;7.40;4.32;;;18.20;99.90;;;;;;5130598;27;20042;-64
2023/07/22 06:56:32;;;;;;;6.30;4.00;;;18.20;99.90;;;;;;5126685;28;20043;-64
2023/07/22 06:58:59;;;;;;;12.07;4.75;;;18.20;99.90;;;;;;5123205;28;20043;-64
2023/07/22 07:01:26;;;;;;;9.40;4.18;;;18.50;99.90;;;;;;5130639;28;20036;-64
2023/07/22 07:03:52;;;;;;;6.57;4.30;;;18.80;99.90;;;;;;5131589;27;20035;-64
2023/07/22 07:06:19;;;;;;;10.80;4.55;;;18.90;99.90;;;;;;5123224;28;20084;-64
2023/07/22 07:08:46;;;;;;;6.88;4.03;;;19.10;99.90;;;;;;5122083;28;20062;-64
2023/07/22 07:11:13;;;;;;;7.82;4.72;;;19.20;99.90;;;;;;5130558;28;20529;-64
2023/07/22 07:13:40;;;;;;;;;;;19.30;99.90;;;;;;5128779;27;20439;-64
2023/07/22 07:16:27;;;;;;;5.78;4.15;;;19.40;99.90;;;;;;5128877;27;20368;-64
2023/07/22 07:18:55;;;;;;;8.32;4.78;;;19.40;99.90;;;;;;5126847;27;20110;-64
2023/07/22 07:21:22;;;;;;;8.60;5.07;;;19.60;99.90;;;;;;5129566;27;20035;-64
2023/07/22 07:23:50;;;;;;;;;;;19.50;99.90;;;;;;5135074;27;20027;-64
2023/07/22 07:26:17;;;;;;;8.27;4.10;;;19.40;99.90;;;;;;5133742;27;20010;-64
2023/07/22 07:28:44;;;;;;;9.00;4.38;;;19.50;99.90;;;;;;5126408;27;20788;-64
2023/07/22 07:31:11;;;;;;;7.88;4.78;;;19.40;99.90;;;;;;5106470;27;20047;-64
2023/07/22 07:33:38;;;;;;;6.68;4.35;;;19.70;99.90;;;;;;5134374;27;20047;-64
2023/07/22 07:36:04;;;;;;;9.27;4.20;;;19.90;99.90;;;;;;5133816;27;20035;-64
2023/07/22 07:38:31;;;;;;;7.97;4.30;;;20.10;99.90;;;;;;5129880;27;20496;-64
2023/07/22 07:41:04;;;;;;;11.50;4.55;;;20.40;99.90;;;;;;5130867;27;20043;-64
2023/07/22 07:43:31;;;;;;;6.70;3.95;;;20.60;99.90;;;;;;5129628;27;20039;-66
2023/07/22 07:46:17;;;;;;;7.28;3.90;;;20.80;99.90;;;;;;5134715;27;20042;-63
2023/07/22 07:48:55;;;;;;;7.03;4.35;;;20.80;99.90;;;;;;5134068;27;20050;-63
2023/07/22 07:51:26;;;;;;;8.13;3.95;;;20.50;99.90;;;;;;5130293;27;20043;-64
2023/07/22 07:53:54;;;;;;;6.05;3.83;;;20.60;99.90;;;;;;5133828;27;20042;-63
2023/07/22 07:56:22;;;;;;;9.18;3.90;;;20.60;99.90;;;;;;5129992;27;20438;-63
2023/07/22 07:58:50;;;;;;;5.03;3.88;;;20.60;99.90;;;;;;5132266;27;20050;-62
2023/07/22 08:01:17;;;;;;;5.40;3.53;;;20.60;99.90;;;;;;5130830;27;20047;-63
2023/07/22 08:03:45;;;;;;;;;;;20.70;99.90;;;;;;5133794;27;20035;-63
2023/07/22 08:06:12;;;;;;;5.82;3.70;;;20.80;99.90;;;;;;5128888;27;20022;-63
2023/07/22 08:08:39;;;;;;;6.03;3.00;;;21.00;99.90;;;;;;5130438;27;20042;-63
2023/07/22 08:11:08;;;;;;;6.13;3.83;;;21.00;99.90;;;;;;5146361;27;20038;-63
2023/07/22 08:13:36;;;;;;;5.20;3.80;;;21.00;99.90;;;;;;5133261;27;20460;-63
2023/07/22 08:16:04;;;;;;;5.45;3.17;;;21.20;99.90;;;;;;5113101;27;20043;-63
2023/07/22 08:18:32;;;;;;;5.70;3.15;;;21.40;99.90;;;;;;5133051;27;20395;-62
2023/07/22 08:20:59;;;;;;;;;;;21.60;99.90;;;;;;5126046;27;20031;-63
2023/07/22 08:23:26;;;;;;;5.43;2.83;;;21.90;99.90;;;;;;5131755;27;19926;-63
2023/07/22 08:25:52;;;;;;;4.30;2.90;;;21.90;99.90;;;;;;5132593;27;20035;-63
2023/07/22 08:28:19;;;;;;;6.72;3.55;;;22.10;99.90;;;;;;5132506;27;20051;-63
2023/07/22 08:30:48;;;;;;;5.65;3.22;;;22.30;99.90;;;;;;5124705;27;20397;-64
2023/07/22 08:33:18;;;;;;;4.22;3.30;;;22.50;99.90;;;;;;5105746;27;20046;-63
2023/07/22 08:36:05;;;;;;;4.00;3.20;;;22.50;99.90;;;;;;5125178;27;20126;-63
2023/07/22 08:38:32;;;;;;;6.20;3.40;;;22.40;99.90;;;;;;5127991;27;20119;-64
2023/07/22 08:40:58;;;;;;;5.80;3.10;;;22.30;99.90;;;;;;5133090;27;20507;-63
2023/07/22 08:43:27;;;;;;;4.95;3.30;;;22.30;99.90;;;;;;5132735;27;20061;-63
2023/07/22 08:45:54;;;;;;;6.07;2.92;;;22.20;99.90;;;;;;5132818;27;20401;-63
2023/07/22 08:48:21;;;;;;;;;;;21.90;99.90;;;;;;5123193;27;20122;-63
2023/07/22 08:51:04;;;;;;;5.80;2.60;;;21.80;99.90;;;;;;5125077;27;19920;-64
2023/07/22 08:53:33;;;;;;;4.38;2.72;;;21.80;99.90;;;;;;5132056;27;20123;-63
2023/07/22 08:56:01;;;;;;;4.32;2.80;;;21.70;99.90;;;;;;5130565;27;20047;-63
2023/07/22 08:58:29;;;;;;;5.93;2.33;;;21.80;99.90;;;;;;5132812;27;20050;-63
2023/07/22 09:00:56;;;;;;;3.63;2.33;;;21.80;99.90;;;;;;5132016;27;20539;-63
2023/07/22 09:03:24;;;;;;;7.35;2.65;;;21.80;99.90;;;;;;5133308;27;20038;-63
2023/07/22 09:05:51;;;;;;;5.20;2.70;;;21.60;99.90;;;;;;5126818;27;20038;-63
2023/07/22 09:08:18;;;;;;;6.90;2.80;;;21.60;99.90;;;;;;5129796;27;20510;-63
2023/07/22 09:10:46;;;;;;;2.40;2.10;;;21.50;99.90;;;;;;5129734;27;20088;-63
2023/07/22 09:13:16;;;;;;;5.18;2.80;;;21.50;99.90;;;;;;5122445;27;20035;-63
2023/07/22 09:15:43;;;;;;;3.20;2.08;;;21.40;99.90;;;;;;5128614;27;20134;-63
2023/07/22 09:18:10;;;;;;;3.50;2.67;;;21.40;99.90;;;;;;5132559;27;20372;-63
2023/07/22 09:20:37;;;;;;;4.43;2.58;;;21.40;99.90;;;;;;5127054;27;20042;-63
2023/07/22 09:23:05;;;;;;;5.20;3.05;;;21.60;99.90;;;;;;5121881;27;20028;-63
2023/07/22 09:25:40;;;;;;;5.68;3.25;;;21.70;99.90;;;;;;5132166;27;20041;-63
2023/07/22 09:28:07;;;;;;;4.07;2.83;;;21.80;99.90;;;;;;5132081;27;20053;-63
2023/07/22 09:30:38;;;;;;;5.20;3.00;;;21.80;99.90;;;;;;5123497;27;20047;-63
2023/07/22 09:33:06;;;;;;;4.82;3.47;;;21.70;99.90;;;;;;5119572;27;20062;-62
2023/07/22 09:35:47;;;;;;;4.82;2.70;;;21.60;99.90;;;;;;5120295;27;20122;-63
2023/07/22 09:38:17;;;;;;;7.70;2.90;;;21.60;99.90;;;;;;5123393;27;20035;-62
2023/07/22 09:40:43;;;;;;;3.78;2.58;;;21.70;99.90;;;;;;5131824;27;20046;-63
2023/07/22 09:43:14;;;;;;;5.18;2.85;;;21.90;99.90;;;;;;5121825;27;20066;-63
2023/07/22 09:45:40;;;;;;;6.88;2.92;;;21.90;99.90;;;;;;5128575;27;20118;-63
2023/07/22 09:48:09;;;;;;;7.25;2.80;;;21.90;99.90;;;;;;5127975;27;20039;-63
2023/07/22 09:50:36;;;;;;;7.45;3.00;;;22.20;99.90;;;;;;5130530;27;20039;-63
2023/07/22 09:53:04;;;;;;;6.05;2.97;;;22.70;99.90;;;;;;5131204;27;20122;-63
2023/07/22 09:55:32;;;;;;;6.57;2.63;;;22.90;99.90;;;;;;5109175;28;20046;-63
2023/07/22 09:58:10;;;;;;;4.05;2.72;;;22.90;99.90;;;;;;5126051;27;20028;-63
2023/07/22 10:00:37;;;;;;;4.65;2.88;;;22.70;99.90;;;;;;5121913;27;20711;-63
2023/07/22 10:03:10;;;;;;;5.88;2.70;;;22.40;99.90;;;;;;5112087;27;20503;-63
2023/07/22 10:05:41;;;;;;;4.28;2.78;;;22.30;99.90;;;;;;5128983;27;20039;-63
2023/07/22 10:08:10;;;;;;;15.18;2.75;;;22.40;99.90;;;;;;5129607;27;20046;-62
2023/07/22 10:10:39;;;;;;;4.05;2.50;;;22.40;99.90;;;;;;5138193;27;20108;-63
2023/07/22 10:13:06;;;;;;;5.28;2.88;;;22.40;99.90;;;;;;5138192;27;20043;-63
2023/07/22 10:15:34;;;;;;;10.82;2.60;;;22.40;99.90;;;;;;5127422;27;20043;-62
2023/07/22 10:18:03;;;;;;;4.38;2.83;;;22.30;99.90;;;;;;5130139;28;20067;-63
2023/07/22 10:20:30;;;;;;;4.78;2.50;;;22.30;99.90;;;;;;5112942;28;20125;-63
2023/07/22 10:22:58;;;;;;;5.25;2.60;;;22.30;99.90;;;;;;5131886;27;20054;-63
2023/07/22 10:25:25;;;;;;;4.20;2.33;;;22.20;99.90;;;;;;5131575;28;20126;-63
2023/07/22 10:27:53;;;;;;;4.85;2.40;;;22.10;99.90;;;;;;5126977;28;20040;-63
2023/07/22 10:30:19;;;;;;;3.83;2.40;;;21.90;99.90;;;;;;5131262;27;20035;-63
2023/07/22 10:32:49;;;;;;;5.97;2.45;;;21.80;99.90;;;;;;5130676;27;20045;-61
2023/07/22 10:35:25;;;;;;;4.43;2.50;;;21.80;99.90;;;;;;5131411;28;20035;-62
2023/07/22 10:37:53;;;;;;;4.60;2.22;;;22.00;99.90;;;;;;5129461;28;20046;-62
2023/07/22 10:40:28;;;;;;;7.60;2.53;;;22.00;99.90;;;;;;5130026;27;20043;-63
2023/07/22 10:43:04;;;;;;;5.13;2.30;;;22.20;99.90;;;;;;5122496;27;20626;-63
2023/07/22 10:45:40;;;;;;;5.28;2.38;;;22.00;99.90;;;;;;5126193;28;20043;-63
2023/07/22 10:48:09;;;;;;;3.80;2.28;;;22.00;99.90;;;;;;5131134;27;20054;-63
2023/07/22 10:50:43;;;;;;;3.75;2.42;;;21.90;99.90;;;;;;5130787;27;20458;-63
2023/07/22 10:53:19;;;;;;;4.22;2.28;;;21.60;99.90;;;;;;5131797;27;20034;-63
2023/07/22 10:56:15;;;;;;;4.97;2.30;;;21.40;99.90;;;;;;5134968;27;20027;-63
2023/07/22 10:58:45;;;;;;;5.03;2.25;;;21.10;99.90;;;;;;5126937;27;20066;-63
2023/07/22 11:01:30;;;;;;;3.15;2.33;;;21.10;99.90;;;;;;5134955;27;20040;-63
2023/07/22 11:04:11;;;;;;;6.25;2.58;;;21.30;99.90;;;;;;5134550;27;20043;-63
2023/07/22 11:06:59;;;;;;;3.45;2.35;;;21.50;99.90;;;;;;5131030;27;20035;-62
2023/07/22 11:09:34;;;;;;;7.70;2.90;;;21.60;99.90;;;;;;5127571;27;20466;-63
2023/07/22 11:12:05;;;;;;;5.68;2.95;;;21.80;99.90;;;;;;5137281;27;20043;-63
2023/07/22 11:14:38;;;;;;;3.75;2.47;;;22.00;99.90;;;;;;5135269;27;20420;-63
2023/07/22 11:17:07;;;;;;;5.57;2.67;;;22.40;99.90;;;;;;5129466;27;20039;-63
2023/07/22 11:19:35;;;;;;;3.80;2.22;;;22.80;99.90;;;;;;5134771;27;20042;-63
2023/07/22 11:22:02;;;;;;;2.90;2.40;;;22.90;99.90;;;;;;5129216;27;20050;-63
2023/07/22 11:24:29;;;;;;;5.15;2.30;;;22.90;99.90;;;;;;5135146;27;20046;-63
2023/07/22 11:26:56;;;;;;;;;;;22.80;99.90;;;;;;5133840;27;20051;-63
2023/07/22 11:29:23;;;;;;;5.97;2.33;;;22.70;99.90;;;;;;5124445;27;19920;-63
2023/07/22 11:31:51;;;;;;;2.92;2.50;;;22.60;99.90;;;;;;5130205;27;20035;-63
2023/07/22 11:34:20;;;;;;;6.38;2.63;;;22.50;99.90;;;;;;5110929;28;20047;-63
2023/07/22 11:36:48;;;;;;;5.13;2.50;;;22.60;99.90;;;;;;5129993;27;20045;-63
2023/07/22 11:39:21;;;;;;;3.45;2.58;;;22.60;99.90;;;;;;5125113;27;20826;-63
2023/07/22 11:41:49;;;;;;;3.60;2.30;;;22.90;99.90;;;;;;5128880;27;20054;-63
2023/07/22 11:44:22;;;;;;;3.47;2.15;;;23.10;99.90;;;;;;5127999;27;20038;-63
2023/07/22 11:46:49;;;;;;;6.00;2.72;;;23.10;99.90;;;;;;5134030;27;20035;-63
2023/07/22 11:49:29;;;;;;;6.47;2.55;;;22.90;99.90;;;;;;5125638;27;20035;-63
2023/07/22 11:52:03;;;;;;;3.72;2.47;;;23.00;99.90;;;;;;5133684;27;20039;-63
2023/07/22 11:54:36;;;;;;;4.20;2.63;;;22.80;99.90;;;;;;5141551;27;20046;-63
2023/07/22 11:57:20;;;;;;;4.35;2.58;;;22.80;99.90;;;;;;5130126;27;20518;-63
2023/07/22 11:59:52;;;;;;;3.88;2.28;;;22.60;99.90;;;;;;5130236;27;20046;-64
2023/07/22 12:02:31;;;;;;;5.95;2.63;;;22.40;99.90;;;;;;5121543;27;20127;-63
2023/07/22 12:05:03;;;;;;;4.90;3.10;;;22.30;99.90;;;;;;5131339;27;20043;-63
2023/07/22 12:07:35;;;;;;;4.88;2.55;;;22.50;99.90;;;;;;5122664;27;20038;-63
2023/07/22 12:10:06;;;;;;;3.65;2.55;;;22.80;99.90;;;;;;5134326;27;20073;-63
2023/07/22 12:12:38;;;;;;;4.03;2.45;;;23.30;99.90;;;;;;5124420;27;20039;-63
2023/07/22 12:15:16;;;;;;;3.78;2.13;;;24.10;99.90;;;;;;5139195;27;20043;-63
2023/07/22 12:18:04;;;;;;;5.50;2.60;;;23.90;99.90;;;;;;5140507;27;20412;-63
2023/07/22 12:20:33;;;;;;;4.90;2.57;;;23.50;99.90;;;;;;5143897;27;20038;-63
2023/07/22 12:23:00;;;;;;;4.88;2.53;;;23.10;99.90;;;;;;5139503;27;20734;-63
2023/07/22 12:25:27;;;;;;;;;;;22.80;99.90;;;;;;5143543;27;20035;-63
2023/07/22 12:27:54;;;;;;;3.05;2.05;;;22.70;99.90;;;;;;5141611;27;19962;-63
2023/07/22 12:30:21;;;;;;;3.72;2.47;;;22.70;99.90;;;;;;5138972;27;20039;-63
2023/07/22 12:32:48;;;;;;;5.95;2.30;;;22.60;99.90;;;;;;5136330;27;20074;-63
2023/07/22 12:35:16;;;;;;;3.50;2.30;;;22.50;99.90;;;;;;5143766;27;20046;-63
2023/07/22 12:37:43;;;;;;;5.00;2.67;;;22.50;99.90;;;;;;5125123;27;20049;-62
2023/07/22 12:40:11;;;;;;;;;;;22.60;99.90;;;;;;5137423;27;20031;-63
2023/07/22 12:42:38;;;;;;;4.82;2.55;;;22.60;99.90;;;;;;5143958;27;19919;-63
2023/07/22 12:45:06;;;;;;;3.28;2.15;;;22.60;99.90;;;;;;5141368;27;20045;-63
2023/07/22 12:47:33;;;;;;;3.55;2.22;;;22.60;99.90;;;;;;5136298;27;20536;-63
2023/07/22 12:50:00;;;;;;;4.05;2.05;;;22.60;99.90;;;;;;5136960;27;20036;-63
2023/07/22 12:52:26;;;;;;;3.88;2.00;;;22.60;99.90;;;;;;5133052;27;20051;-63
2023/07/22 12:54:53;;;;;;;5.35;2.17;;;22.60;99.90;;;;;;5130605;27;20043;-63
2023/07/22 12:57:20;;;;;;;3.55;2.22;;;22.70;99.90;;;;;;5133073;27;20042;-62